Time;durP1;ratioP1;P1;durP2;ratioP2;P2;SDS_P1;SDS_P2;PMS_P1;PMS_P2;Temp;Humidity;BMP_temperature;BMP_pressure;BME280_temperature;BME280_humidity;BME280_pressure;Samples;Min_cycle;Max_cycle;Signal;HPM_P1;HPM_P2
2023/12/05 00:00:55;;;;;;;;;;;5.40;99.90;;;;;;7333233;19;111635;-68
2023/12/05 00:03:22;;;;;;;;;;;5.50;99.90;;;;;;7335736;19;109134;-68
2023/12/05 00:05:49;;;;;;;;;;;5.40;99.90;;;;;;7335534;19;110565;-68
2023/12/05 00:08:17;;;;;;;;;;;5.50;99.90;;;;;;7334575;19;108955;-68
2023/12/05 00:10:45;;;;;;;;;;;5.50;99.90;;;;;;7333295;19;108553;-68
2023/12/05 00:13:12;;;;;;;;;;;5.60;99.90;;;;;;7334961;19;110086;-68
2023/12/05 00:15:39;;;;;;;;;;;5.60;99.90;;;;;;7336775;19;109246;-69
2023/12/05 00:18:07;;;;;;;;;;;5.70;99.90;;;;;;7338240;19;109827;-68
2023/12/05 00:20:34;;;;;;;;;;;5.60;99.90;;;;;;7332666;19;108515;-68
2023/12/05 00:23:01;;;;;;;;;;;5.60;99.90;;;;;;7329975;19;112115;-69
2023/12/05 00:25:29;;;;;;;;;;;5.60;99.90;;;;;;7330020;19;109263;-69
2023/12/05 00:27:56;;;;;;;;;;;5.60;99.90;;;;;;7331690;19;108527;-68
2023/12/05 00:30:23;;;;;;;;;;;5.60;99.90;;;;;;7330007;19;110958;-68
2023/12/05 00:32:53;;;;;;;;;;;5.60;99.90;;;;;;7334867;19;109470;-68
2023/12/05 00:35:21;;;;;;;;;;;5.60;99.90;;;;;;7330346;19;109156;-68
2023/12/05 00:37:48;;;;;;;;;;;5.70;99.90;;;;;;7341220;19;109860;-69
2023/12/05 00:40:15;;;;;;;;;;;5.70;99.90;;;;;;7328998;19;109200;-68
2023/12/05 00:42:42;;;;;;;;;;;5.70;99.90;;;;;;7335313;19;109557;-68
2023/12/05 00:45:11;;;;;;;;;;;5.70;99.90;;;;;;7333475;19;109468;-68
2023/12/05 00:47:39;;;;;;;;;;;5.70;99.90;;;;;;7333680;19;108537;-68
2023/12/05 00:50:07;;;;;;;;;;;5.60;99.90;;;;;;7332606;19;111509;-69
2023/12/05 00:52:34;;;;;;;;;;;5.60;99.90;;;;;;7332473;19;109627;-69
2023/12/05 00:55:01;;;;;;;;;;;5.60;99.90;;;;;;7334728;19;109879;-70
2023/12/05 00:57:28;;;;;;;;;;;5.60;99.90;;;;;;7332038;19;112198;-69
2023/12/05 00:59:56;;;;;;;;;;;5.60;99.90;;;;;;7338438;19;110068;-67
2023/12/05 01:02:23;;;;;;;;;;;5.60;99.90;;;;;;7332422;19;108900;-72
2023/12/05 01:04:50;;;;;;;;;;;5.60;99.90;;;;;;7334127;19;109726;-74
2023/12/05 01:07:19;;;;;;;;;;;5.60;99.90;;;;;;7329799;19;109029;-71
2023/12/05 01:09:47;;;;;;;;;;;5.50;99.90;;;;;;7332285;19;109940;-68
2023/12/05 01:12:14;;;;;;;;;;;5.50;99.90;;;;;;7333448;19;110055;-68
2023/12/05 01:14:41;;;;;;;;;;;5.50;99.90;;;;;;7332315;19;109233;-70
2023/12/05 01:17:08;;;;;;;;;;;5.50;99.90;;;;;;7332937;19;109441;-70
2023/12/05 01:19:37;;;;;;;;;;;5.50;99.90;;;;;;7330812;19;109693;-69
2023/12/05 01:22:05;;;;;;;;;;;5.60;99.90;;;;;;7340587;19;110560;-73
2023/12/05 01:24:34;;;;;;;;;;;5.60;99.90;;;;;;7346695;19;108953;-69
2023/12/05 01:27:02;;;;;;;;;;;5.60;99.90;;;;;;7348500;19;108607;-84
2023/12/05 01:29:29;;;;;;;;;;;5.60;99.90;;;;;;7348933;19;109011;-84
2023/12/05 01:32:05;;;;;;;;;;;5.60;99.90;;;;;;7349136;19;110429;-84
2023/12/05 01:34:32;;;;;;;;;;;5.60;99.90;;;;;;7348905;19;109618;-85
2023/12/05 01:36:59;;;;;;;;;;;5.50;99.90;;;;;;7352365;19;109213;-84
2023/12/05 01:39:26;;;;;;;;;;;5.50;99.90;;;;;;7348872;19;112578;-84
2023/12/05 01:41:53;;;;;;;;;;;5.50;99.90;;;;;;7349308;19;108942;-84
2023/12/05 01:44:21;;;;;;;;;;;5.60;99.90;;;;;;7352058;19;109092;-70
2023/12/05 01:46:48;;;;;;;;;;;5.60;99.90;;;;;;7347516;19;108976;-69
2023/12/05 01:49:16;;;;;;;;;;;5.60;99.90;;;;;;7342847;19;109040;-68
2023/12/05 01:51:55;;;;;;;;;;;5.50;99.90;;;;;;7344657;19;110408;-69
2023/12/05 01:54:22;;;;;;;;;;;5.50;99.90;;;;;;7342222;19;108913;-69
2023/12/05 01:56:50;;;;;;;;;;;5.50;99.90;;;;;;7341770;19;113969;-69
2023/12/05 01:59:17;;;;;;;;;;;5.50;99.90;;;;;;7343939;19;109674;-69
2023/12/05 02:01:44;;;;;;;;;;;5.60;99.90;;;;;;7346343;19;109279;-69
2023/12/05 02:04:12;;;;;;;;;;;5.60;99.90;;;;;;7340748;19;108646;-69
2023/12/05 02:06:39;;;;;;;;;;;5.60;99.90;;;;;;7351385;19;109222;-68
2023/12/05 02:09:08;;;;;;;;;;;5.60;99.90;;;;;;7347170;19;108817;-69
2023/12/05 02:11:35;;;;;;;;;;;5.60;99.90;;;;;;7347176;19;112436;-69
2023/12/05 02:14:05;;;;;;;;;;;5.50;99.90;;;;;;7347074;19;109777;-69
2023/12/05 02:16:36;;;;;;;;;;;5.60;99.90;;;;;;7345620;19;109089;-68
2023/12/05 02:19:13;;;;;;;;;;;5.60;99.90;;;;;;7344782;19;110043;-71
2023/12/05 02:21:42;;;;;;;;;;;5.60;99.90;;;;;;7347547;19;108761;-69
2023/12/05 02:24:25;;;;;;;;;;;5.60;99.90;;;;;;7343662;19;110582;-71
2023/12/05 02:26:57;;;;;;;;;;;5.60;99.90;;;;;;7347200;19;110193;-69
2023/12/05 02:29:24;;;;;;;;;;;5.60;99.90;;;;;;7349939;19;110188;-69
2023/12/05 02:31:53;;;;;;;;;;;5.60;99.90;;;;;;7345317;19;110245;-71
2023/12/05 02:34:21;;;;;;;;;;;5.50;99.90;;;;;;7340473;19;109652;-69
2023/12/05 02:36:55;;;;;;;;;;;5.60;99.90;;;;;;7338865;19;108681;-69
2023/12/05 02:39:31;;;;;;;;;;;5.50;99.90;;;;;;7335035;19;113363;-68
2023/12/05 02:41:58;;;;;;;;;;;5.60;99.90;;;;;;7337005;19;109330;-69
2023/12/05 02:44:31;;;;;;;;;;;5.60;99.90;;;;;;7334852;19;108798;-69
2023/12/05 02:47:01;;;;;;;;;;;5.60;99.90;;;;;;7337828;19;109443;-70
2023/12/05 02:49:29;;;;;;;;;;;5.60;99.90;;;;;;7341803;19;109034;-69
2023/12/05 02:51:56;;;;;;;;;;;5.60;99.90;;;;;;7338625;19;109928;-69
2023/12/05 02:54:24;;;;;;;;;;;5.60;99.90;;;;;;7335466;19;108794;-69
2023/12/05 02:56:51;;;;;;;;;;;5.70;99.90;;;;;;7335608;19;112084;-69
2023/12/05 02:59:18;;;;;;;;;;;5.60;99.90;;;;;;7334542;19;111979;-69
2023/12/05 03:01:45;;;;;;;;;;;5.70;99.90;;;;;;7337437;19;112882;-69
2023/12/05 03:04:12;;;;;;;;;;;5.60;99.90;;;;;;7334098;19;108707;-68
2023/12/05 03:06:39;;;;;;;;;;;5.70;99.90;;;;;;7338040;19;109953;-69
2023/12/05 03:09:07;;;;;;;;;;;5.70;99.90;;;;;;7339054;19;109506;-69
2023/12/05 03:11:35;;;;;;;;;;;5.70;99.90;;;;;;7339207;19;109315;-69
2023/12/05 03:14:03;;;;;;;;;;;5.70;99.90;;;;;;7336926;19;108740;-68
2023/12/05 03:16:30;;;;;;;;;;;5.70;99.90;;;;;;7334623;19;110388;-69
2023/12/05 03:18:58;;;;;;;;;;;5.70;99.90;;;;;;7336902;19;113191;-71
2023/12/05 03:21:26;;;;;;;;;;;5.70;99.90;;;;;;7338887;19;108660;-69
2023/12/05 03:23:54;;;;;;;;;;;5.70;99.90;;;;;;7334893;19;108958;-69
2023/12/05 03:26:22;;;;;;;;;;;5.70;99.90;;;;;;7336427;19;110120;-70
2023/12/05 03:28:49;;;;;;;;;;;5.70;99.90;;;;;;7336596;19;108708;-69
2023/12/05 03:31:17;;;;;;;;;;;5.70;99.90;;;;;;7336878;19;108795;-69
2023/12/05 03:33:44;;;;;;;;;;;5.80;99.90;;;;;;7342331;19;109600;-73
2023/12/05 03:36:12;;;;;;;;;;;5.80;99.90;;;;;;7338476;19;109358;-69
2023/12/05 03:38:39;;;;;;;;;;;5.80;99.90;;;;;;7335317;19;109564;-68
2023/12/05 03:41:07;;;;;;;;;;;5.80;99.90;;;;;;7336819;19;108577;-70
2023/12/05 03:43:35;;;;;;;;;;;5.70;99.90;;;;;;7338496;19;110637;-69
2023/12/05 03:46:02;;;;;;;;;;;5.80;99.90;;;;;;7329372;19;109092;-68
2023/12/05 03:48:29;;;;;;;;;;;5.80;99.90;;;;;;7336503;19;109954;-72
2023/12/05 03:50:57;;;;;;;;;;;5.80;99.90;;;;;;7334815;19;108900;-74
2023/12/05 03:53:25;;;;;;;;;;;5.70;99.90;;;;;;7334426;19;110505;-71
2023/12/05 03:55:52;;;;;;;;;;;5.70;99.90;;;;;;7340072;19;108827;-71
2023/12/05 03:58:19;;;;;;;;;;;5.70;99.90;;;;;;7335563;19;110187;-70
2023/12/05 04:00:46;;;;;;;;;;;5.60;99.90;;;;;;7336492;19;108990;-68
2023/12/05 04:03:14;;;;;;;;;;;5.60;99.90;;;;;;7335814;19;109598;-68
2023/12/05 04:05:42;;;;;;;;;;;5.60;99.90;;;;;;7351972;19;110176;-85
2023/12/05 04:08:10;;;;;;;;;;;5.60;99.90;;;;;;7342181;19;109281;-84
2023/12/05 04:10:37;;;;;;;;;;;5.60;99.90;;;;;;7341127;19;111529;-85
2023/12/05 04:13:04;;;;;;;;;;;5.50;99.90;;;;;;7342022;19;110194;-85
2023/12/05 04:15:31;;;;;;;;;;;5.50;99.90;;;;;;7338574;19;108899;-84
2023/12/05 04:17:58;;;;;;;;;;;5.50;99.90;;;;;;7340160;19;108823;-85
2023/12/05 04:20:26;;;;;;;;;;;5.50;99.90;;;;;;7337632;19;108525;-84
2023/12/05 04:22:53;;;;;;;;;;;5.50;99.90;;;;;;7341095;19;109359;-84
2023/12/05 04:25:20;;;;;;;;;;;5.50;99.90;;;;;;7334701;19;110500;-85
2023/12/05 04:27:47;;;;;;;;;;;5.50;99.90;;;;;;7337719;19;109676;-83
2023/12/05 04:30:15;;;;;;;;;;;5.50;99.90;;;;;;7337273;19;113206;-85
2023/12/05 04:32:42;;;;;;;;;;;5.40;99.90;;;;;;7335824;19;114315;-84
2023/12/05 04:35:12;;;;;;;;;;;5.40;99.90;;;;;;7336210;19;108952;-84
2023/12/05 04:37:39;;;;;;;;;;;5.40;99.90;;;;;;7344230;19;112619;-84
2023/12/05 04:40:08;;;;;;;;;;;5.40;99.90;;;;;;7336368;19;108274;-83
2023/12/05 04:42:35;;;;;;;;;;;5.40;99.90;;;;;;7337516;19;109055;-84
2023/12/05 04:45:03;;;;;;;;;;;5.40;99.90;;;;;;7335887;19;109727;-84
2023/12/05 04:47:30;;;;;;;;;;;5.40;99.90;;;;;;7334912;19;114130;-84
2023/12/05 04:49:57;;;;;;;;;;;5.40;99.90;;;;;;7337249;19;108375;-84
2023/12/05 04:52:24;;;;;;;;;;;5.30;99.90;;;;;;7333816;19;112493;-83
2023/12/05 04:54:51;;;;;;;;;;;5.30;99.90;;;;;;7335415;19;109693;-83
2023/12/05 04:57:19;;;;;;;;;;;5.30;99.90;;;;;;7335465;19;111978;-84
2023/12/05 04:59:46;;;;;;;;;;;5.40;99.90;;;;;;7339337;19;110822;-84
2023/12/05 05:02:13;;;;;;;;;;;5.30;99.90;;;;;;7336501;19;111863;-84
2023/12/05 05:04:41;;;;;;;;;;;5.40;99.90;;;;;;7336809;19;113218;-83
2023/12/05 05:07:08;;;;;;;;;;;5.30;99.90;;;;;;7331387;19;108450;-69
2023/12/05 05:09:36;;;;;;;;;;;5.40;99.90;;;;;;7332372;19;110381;-68
2023/12/05 05:12:08;;;;;;;;;;;5.40;99.90;;;;;;7333477;19;110554;-68
2023/12/05 05:14:36;;;;;;;;;;;5.30;99.90;;;;;;7333602;19;109216;-72
2023/12/05 05:17:08;;;;;;;;;;;5.40;99.90;;;;;;7336389;19;109050;-73
2023/12/05 05:19:36;;;;;;;;;;;5.40;99.90;;;;;;7331609;19;110115;-74
2023/12/05 05:22:04;;;;;;;;;;;5.40;99.90;;;;;;7338344;19;109930;-70
2023/12/05 05:24:32;;;;;;;;;;;5.40;99.90;;;;;;7333481;19;108723;-68
2023/12/05 05:27:00;;;;;;;;;;;5.40;99.90;;;;;;7332990;19;109712;-84
2023/12/05 05:29:27;;;;;;;;;;;5.30;99.90;;;;;;7332115;19;109531;-84
2023/12/05 05:31:54;;;;;;;;;;;5.40;99.90;;;;;;7335353;19;109681;-84
2023/12/05 05:34:21;;;;;;;;;;;5.40;99.90;;;;;;7334220;19;108751;-84
2023/12/05 05:36:48;;;;;;;;;;;5.40;99.90;;;;;;7337914;19;109629;-85
2023/12/05 05:39:15;;;;;;;;;;;5.30;99.90;;;;;;7335528;19;109703;-83
2023/12/05 05:41:43;;;;;;;;;;;5.30;99.90;;;;;;7336484;19;108912;-84
2023/12/05 05:44:10;;;;;;;;;;;5.40;99.90;;;;;;7339721;19;112531;-84
2023/12/05 05:46:37;;;;;;;;;;;5.40;99.90;;;;;;7333901;19;109774;-84
2023/12/05 05:49:04;;;;;;;;;;;5.40;99.90;;;;;;7333279;19;109162;-83
2023/12/05 05:51:31;;;;;;;;;;;5.40;99.90;;;;;;7332951;19;113762;-84
2023/12/05 05:53:58;;;;;;;;;;;5.40;99.90;;;;;;7333835;19;108749;-84
2023/12/05 05:56:26;;;;;;;;;;;5.30;99.90;;;;;;7332069;19;111388;-83
2023/12/05 05:58:53;;;;;;;;;;;5.30;99.90;;;;;;7333952;19;110456;-84
2023/12/05 06:01:20;;;;;;;;;;;5.40;99.90;;;;;;7331344;19;109748;-84
2023/12/05 06:03:48;;;;;;;;;;;5.40;99.90;;;;;;7332873;19;110714;-84
2023/12/05 06:06:15;;;;;;;;;;;5.40;99.90;;;;;;7335403;19;110408;-85
2023/12/05 06:08:43;;;;;;;;;;;5.40;99.90;;;;;;7334964;19;109444;-84
2023/12/05 06:11:10;;;;;;;;;;;5.30;99.90;;;;;;7334188;19;109595;-84
2023/12/05 06:13:37;;;;;;;;;;;5.30;99.90;;;;;;7337669;19;108963;-83
2023/12/05 06:16:04;;;;;;;;;;;5.30;99.90;;;;;;7338608;19;108797;-83
2023/12/05 06:18:31;;;;;;;;;;;5.40;99.90;;;;;;7338297;19;109168;-83
2023/12/05 06:20:59;;;;;;;;;;;5.40;99.90;;;;;;7339287;19;108539;-83
2023/12/05 06:23:27;;;;;;;;;;;5.50;99.90;;;;;;7337383;19;109461;-84
2023/12/05 06:25:55;;;;;;;;;;;5.50;99.90;;;;;;7338775;19;113088;-83
2023/12/05 06:28:22;;;;;;;;;;;5.50;99.90;;;;;;7342586;19;109326;-87
2023/12/05 06:30:49;;;;;;;;;;;5.50;99.90;;;;;;7340361;19;110570;-85
2023/12/05 06:33:16;;;;;;;;;;;5.50;99.90;;;;;;7339553;19;109415;-85
2023/12/05 06:35:43;;;;;;;;;;;5.40;99.90;;;;;;7340463;19;109078;-84
2023/12/05 06:38:10;;;;;;;;;;;5.40;99.90;;;;;;7341547;19;110451;-85
2023/12/05 06:40:37;;;;;;;;;;;5.40;99.90;;;;;;7339662;19;108505;-84
2023/12/05 06:43:04;;;;;;;;;;;5.40;99.90;;;;;;7339205;19;109411;-85
2023/12/05 06:45:34;;;;;;;;;;;5.40;99.90;;;;;;7335970;19;110991;-83
2023/12/05 06:48:02;;;;;;;;;;;5.50;99.90;;;;;;7344526;19;109821;-85
2023/12/05 06:50:31;;;;;;;;;;;5.50;99.90;;;;;;7338278;19;109290;-84
2023/12/05 06:52:59;;;;;;;;;;;5.40;99.90;;;;;;7342476;19;108748;-85
2023/12/05 06:55:27;;;;;;;;;;;5.40;99.90;;;;;;7341134;19;108616;-85
2023/12/05 06:57:54;;;;;;;;;;;5.40;99.90;;;;;;7337694;19;110179;-84
2023/12/05 07:00:22;;;;;;;;;;;5.40;99.90;;;;;;7336206;19;109696;-84
2023/12/05 07:02:50;;;;;;;;;;;5.50;99.90;;;;;;7338641;19;108681;-84
2023/12/05 07:05:17;;;;;;;;;;;5.40;99.90;;;;;;7336362;19;110207;-85
2023/12/05 07:07:44;;;;;;;;;;;5.40;99.90;;;;;;7340868;19;108462;-85
2023/12/05 07:10:11;;;;;;;;;;;5.30;99.90;;;;;;7344790;19;109347;-85
2023/12/05 07:12:39;;;;;;;;;;;5.30;99.90;;;;;;7339101;19;108738;-84
2023/12/05 07:15:08;;;;;;;;;;;5.30;99.90;;;;;;7338589;19;109499;-85
2023/12/05 07:17:36;;;;;;;;;;;5.40;99.90;;;;;;7335267;19;114105;-85
2023/12/05 07:20:03;;;;;;;;;;;5.40;99.90;;;;;;7336436;19;108488;-85
2023/12/05 07:22:31;;;;;;;;;;;5.30;99.90;;;;;;7333646;19;108597;-69
2023/12/05 07:24:58;;;;;;;;;;;5.40;99.90;;;;;;7335748;19;113011;-70
2023/12/05 07:27:25;;;;;;;;;;;5.40;99.90;;;;;;7331864;19;109440;-69
2023/12/05 07:29:53;;;;;;;;;;;5.40;99.90;;;;;;7336621;19;109403;-69
2023/12/05 07:32:20;;;;;;;;;;;5.50;99.90;;;;;;7339631;19;112051;-69
2023/12/05 07:34:49;;;;;;;;;;;5.50;99.90;;;;;;7338811;19;108873;-69
2023/12/05 07:37:17;;;;;;;;;;;5.60;99.90;;;;;;7335743;19;110605;-69
2023/12/05 07:39:44;;;;;;;;;;;5.60;99.90;;;;;;7335575;19;108293;-69
2023/12/05 07:42:11;;;;;;;;;;;5.70;99.90;;;;;;7336527;19;109383;-70
2023/12/05 07:44:38;;;;;;;;;;;5.70;99.90;;;;;;7337308;19;110221;-69
2023/12/05 07:47:07;;;;;;;;;;;5.70;99.90;;;;;;7339720;19;108822;-70
2023/12/05 07:49:34;;;;;;;;;;;5.60;99.90;;;;;;7333782;19;110072;-69
2023/12/05 07:52:04;;;;;;;;;;;5.70;99.90;;;;;;7335918;19;110493;-69
2023/12/05 07:54:31;;;;;;;;;;;5.70;99.90;;;;;;7341128;19;108725;-69
2023/12/05 07:56:58;;;;;;;;;;;5.70;99.90;;;;;;7336857;19;109008;-74
2023/12/05 07:59:25;;;;;;;;;;;5.70;99.90;;;;;;7336266;19;109111;-75
2023/12/05 08:01:52;;;;;;;;;;;5.80;99.90;;;;;;7334320;19;109544;-73
2023/12/05 08:04:20;;;;;;;;;;;5.70;99.90;;;;;;7333739;19;109169;-70
2023/12/05 08:06:48;;;;;;;;;;;5.70;99.90;;;;;;7335875;19;110221;-69
2023/12/05 08:09:16;;;;;;;;;;;5.70;99.90;;;;;;7333293;19;111342;-69
2023/12/05 08:11:43;;;;;;;;;;;5.70;99.90;;;;;;7337650;19;110241;-69
2023/12/05 08:14:10;;;;;;;;;;;5.70;99.90;;;;;;7335570;19;113901;-69
2023/12/05 08:16:39;;;;;;;;;;;5.80;99.90;;;;;;7342070;19;109539;-68
2023/12/05 08:19:06;;;;;;;;;;;5.80;99.90;;;;;;7337451;19;108458;-69
2023/12/05 08:21:34;;;;;;;;;;;5.80;99.90;;;;;;7334810;19;109320;-69
2023/12/05 08:24:01;;;;;;;;;;;5.80;99.90;;;;;;7332887;19;113323;-69
2023/12/05 08:26:29;;;;;;;;;;;5.90;99.90;;;;;;7336847;19;108753;-69
2023/12/05 08:28:56;;;;;;;;;;;5.80;99.90;;;;;;7336640;19;109508;-69
2023/12/05 08:31:25;;;;;;;;;;;5.90;99.90;;;;;;7335963;19;109082;-69
2023/12/05 08:33:52;;;;;;;;;;;5.90;99.90;;;;;;7332645;19;109207;-69
2023/12/05 08:36:20;;;;;;;;;;;5.90;99.90;;;;;;7333548;19;109085;-71
2023/12/05 08:38:47;;;;;;;;;;;5.90;99.90;;;;;;7336460;19;110033;-69
2023/12/05 08:41:18;;;;;;;;;;;6.00;99.90;;;;;;7333036;19;109063;-69
2023/12/05 08:43:46;;;;;;;;;;;6.00;99.90;;;;;;7333417;19;109490;-69
2023/12/05 08:46:13;;;;;;;;;;;6.00;99.90;;;;;;7331389;19;109711;-69
2023/12/05 08:48:40;;;;;;;;;;;6.00;99.90;;;;;;7336944;19;108737;-70
2023/12/05 08:51:07;;;;;;;;;;;6.00;99.90;;;;;;7330198;19;110538;-69
2023/12/05 08:53:35;;;;;;;;;;;6.00;99.90;;;;;;7332078;19;109147;-69
2023/12/05 08:56:04;;;;;;;;;;;6.00;99.90;;;;;;7335029;19;109183;-69
2023/12/05 08:58:31;;;;;;;;;;;6.00;99.90;;;;;;7336648;19;111441;-69
2023/12/05 09:00:58;;;;;;;;;;;6.00;99.90;;;;;;7336317;19;109245;-69
2023/12/05 09:03:25;;;;;;;;;;;6.00;99.90;;;;;;7329306;19;109988;-69
2023/12/05 09:05:53;;;;;;;;;;;6.10;99.90;;;;;;7333250;19;108821;-69
2023/12/05 09:08:21;;;;;;;;;;;6.10;99.90;;;;;;7329086;19;109145;-69
2023/12/05 09:10:48;;;;;;;;;;;6.10;99.90;;;;;;7333911;19;110380;-70
2023/12/05 09:13:15;;;;;;;;;;;6.10;99.90;;;;;;7330801;19;109189;-69
2023/12/05 09:15:43;;;;;;;;;;;6.10;99.90;;;;;;7334729;19;109823;-70
2023/12/05 09:18:13;;;;;;;;;;;6.00;99.90;;;;;;7331951;19;112812;-71
2023/12/05 09:20:40;;;;;;;;;;;6.10;99.90;;;;;;7335831;19;109175;-74
2023/12/05 09:23:08;;;;;;;;;;;6.10;99.90;;;;;;7327865;19;109282;-75
2023/12/05 09:25:35;;;;;;;;;;;6.10;99.90;;;;;;7332405;19;109461;-73
2023/12/05 09:28:03;;;;;;;;;;;6.10;99.90;;;;;;7336415;19;108562;-71
2023/12/05 09:30:30;;;;;;;;;;;6.10;99.90;;;;;;7331516;19;109940;-71
2023/12/05 09:32:57;;;;;;;;;;;6.10;99.90;;;;;;7331459;19;109099;-72
2023/12/05 09:35:24;;;;;;;;;;;6.10;99.90;;;;;;7330890;19;109143;-69
2023/12/05 09:37:52;;;;;;;;;;;6.10;99.90;;;;;;7334449;19;113438;-69
2023/12/05 09:40:19;;;;;;;;;;;6.10;99.90;;;;;;7328621;19;108625;-69
2023/12/05 09:42:47;;;;;;;;;;;6.10;99.90;;;;;;7339229;19;109051;-70
2023/12/05 09:45:16;;;;;;;;;;;6.10;99.90;;;;;;7339535;19;113526;-69
2023/12/05 09:47:49;;;;;;;;;;;6.10;99.90;;;;;;7340344;19;109369;-69
2023/12/05 09:50:18;;;;;;;;;;;6.10;99.90;;;;;;7339913;19;110401;-68
2023/12/05 09:52:46;;;;;;;;;;;6.10;99.90;;;;;;7340347;19;108732;-70
2023/12/05 09:55:13;;;;;;;;;;;6.00;99.90;;;;;;7335005;19;111816;-70
2023/12/05 09:57:41;;;;;;;;;;;6.00;99.90;;;;;;7342980;19;109217;-68
2023/12/05 10:00:09;;;;;;;;;;;6.10;99.90;;;;;;7335204;19;109483;-68
2023/12/05 10:02:37;;;;;;;;;;;6.00;99.90;;;;;;7336493;19;109326;-68
2023/12/05 10:05:08;;;;;;;;;;;6.00;99.90;;;;;;7342054;19;110337;-68
2023/12/05 10:07:37;;;;;;;;;;;6.00;99.90;;;;;;7338851;19;109083;-69
2023/12/05 10:10:04;;;;;;;;;;;6.00;99.90;;;;;;7337394;19;109710;-69
2023/12/05 10:12:32;;;;;;;;;;;6.00;99.90;;;;;;7338495;19;108888;-69
2023/12/05 10:15:00;;;;;;;;;;;6.00;99.90;;;;;;7336953;19;110132;-69
2023/12/05 10:17:28;;;;;;;;;;;6.00;99.90;;;;;;7337865;19;110457;-69
2023/12/05 10:19:56;;;;;;;;;;;6.00;99.90;;;;;;7340549;19;109232;-69
2023/12/05 10:22:25;;;;;;;;;;;6.00;99.90;;;;;;7337155;19;108960;-69
2023/12/05 10:24:54;;;;;;;;;;;6.00;99.90;;;;;;7339089;19;110444;-69
2023/12/05 10:27:21;;;;;;;;;;;5.90;99.90;;;;;;7342570;19;111366;-69
2023/12/05 10:29:48;;;;;;;;;;;5.90;99.90;;;;;;7336508;19;110475;-69
2023/12/05 10:32:15;;;;;;;;;;;5.90;99.90;;;;;;7337985;19;111414;-69
2023/12/05 10:34:47;;;;;;;;;;;6.00;99.90;;;;;;7336615;19;108472;-69
2023/12/05 10:37:19;;;;;;;;;;;5.90;99.90;;;;;;7338530;19;110615;-69
2023/12/05 10:39:48;;;;;;;;;;;5.90;99.90;;;;;;7339325;19;110091;-69
2023/12/05 10:42:16;;;;;;;;;;;5.90;99.90;;;;;;7338897;19;109239;-69
2023/12/05 10:44:43;;;;;;;;;;;5.90;99.90;;;;;;7335406;19;109219;-68
2023/12/05 10:47:11;;;;;;;;;;;5.90;99.90;;;;;;7337762;19;108893;-70
2023/12/05 10:49:42;;;;;;;;;;;5.90;99.90;;;;;;7343881;19;109208;-69
2023/12/05 10:52:11;;;;;;;;;;;5.90;99.90;;;;;;7339826;19;108388;-70
2023/12/05 10:54:38;;;;;;;;;;;5.90;99.90;;;;;;7338946;19;108303;-69
2023/12/05 10:57:09;;;;;;;;;;;5.90;99.90;;;;;;7335134;19;109974;-68
2023/12/05 10:59:37;;;;;;;;;;;5.90;99.90;;;;;;7338057;19;110414;-69
2023/12/05 11:02:11;;;;;;;;;;;5.90;99.90;;;;;;7337391;19;110868;-68
2023/12/05 11:04:41;;;;;;;;;;;5.90;99.90;;;;;;7340453;19;109842;-69
2023/12/05 11:07:08;;;;;;;;;;;6.00;99.90;;;;;;7337982;19;108721;-68
2023/12/05 11:09:36;;;;;;;;;;;5.90;99.90;;;;;;7342769;19;110277;-68
2023/12/05 11:12:05;;;;;;;;;;;6.00;99.90;;;;;;7337459;19;108964;-68
2023/12/05 11:14:33;;;;;;;;;;;5.90;99.90;;;;;;7334215;19;109003;-70
2023/12/05 11:17:03;;;;;;;;;;;5.90;99.90;;;;;;7337695;19;110130;-68
2023/12/05 11:19:36;;;;;;;;;;;5.90;99.90;;;;;;7336376;19;110295;-69
2023/12/05 11:22:24;;;;;;;;;;;5.90;99.90;;;;;;7337189;19;109404;-68
2023/12/05 11:25:16;;;;;;;;;;;5.90;99.90;;;;;;7335214;19;110109;-68
2023/12/05 11:27:57;;;;;;;;;;;6.00;99.90;;;;;;7337117;19;109001;-69
2023/12/05 11:30:28;;;;;;;;;;;6.00;99.90;;;;;;7336243;19;111965;-78
2023/12/05 11:33:05;;;;;;;;;;;6.00;99.90;;;;;;7341071;19;109664;-78
2023/12/05 11:35:39;;;;;;;;;;;5.90;99.90;;;;;;7338341;19;109406;-78
2023/12/05 11:38:10;;;;;;;;;;;5.80;99.90;;;;;;7337918;19;113731;-77
2023/12/05 11:40:37;;;;;;;;;;;5.80;99.90;;;;;;7338432;19;109284;-78
2023/12/05 11:43:04;;;;;;;;;;;5.90;99.90;;;;;;7336968;19;109490;-79
2023/12/05 11:45:32;;;;;;;;;;;5.90;99.90;;;;;;7337266;19;110354;-78
2023/12/05 11:47:59;;;;;;;;;;;5.90;99.90;;;;;;7338119;19;108529;-78
2023/12/05 11:50:26;;;;;;;;;;;5.90;99.90;;;;;;7336356;19;108537;-87
2023/12/05 11:52:56;;;;;;;;;;;5.90;99.90;;;;;;7335890;19;109256;-86
2023/12/05 11:55:23;;;;;;;;;;;5.90;99.90;;;;;;7340711;19;109250;-86
2023/12/05 11:57:51;;;;;;;;;;;5.70;99.90;;;;;;7338938;19;110337;-86
2023/12/05 12:00:20;;;;;;;;;;;5.70;99.90;;;;;;7334686;19;109054;-86
2023/12/05 12:02:48;;;;;;;;;;;5.70;99.90;;;;;;7335330;19;109447;-86
2023/12/05 12:05:16;;;;;;;;;;;5.80;99.90;;;;;;7333925;19;111546;-86
2023/12/05 12:07:58;;;;;;;;;;;5.80;99.90;;;;;;7333265;19;108890;-86
2023/12/05 12:10:26;;;;;;;;;;;5.80;99.90;;;;;;7337041;19;111091;-86
2023/12/05 12:12:54;;;;;;;;;;;5.70;99.90;;;;;;7334381;19;112673;-86
2023/12/05 12:15:21;;;;;;;;;;;5.70;99.90;;;;;;7334616;19;109421;-86
2023/12/05 12:17:48;;;;;;;;;;;5.70;99.90;;;;;;7342007;19;109735;-87
2023/12/05 12:20:18;;;;;;;;;;;5.70;99.90;;;;;;7335796;19;108616;-87
2023/12/05 12:22:49;;;;;;;;;;;5.70;99.90;;;;;;7337471;19;108612;-86
2023/12/05 12:25:17;;;;;;;;;;;5.70;99.90;;;;;;7334419;19;109656;-86
2023/12/05 12:27:45;;;;;;;;;;;5.70;99.90;;;;;;7336167;19;113176;-86
2023/12/05 12:30:17;;;;;;;;;;;5.70;99.90;;;;;;7337791;19;109229;-86
2023/12/05 12:32:53;;;;;;;;;;;5.60;99.90;;;;;;7336708;19;111764;-86
2023/12/05 12:35:22;;;;;;;;;;;5.70;99.90;;;;;;7338006;19;108772;-86
2023/12/05 12:37:50;;;;;;;;;;;5.60;99.90;;;;;;7337662;19;109192;-86
2023/12/05 12:40:19;;;;;;;;;;;5.60;99.90;;;;;;7342115;19;113092;-86
2023/12/05 12:42:47;;;;;;;;;;;5.70;99.90;;;;;;7335756;19;108629;-85
2023/12/05 12:45:14;;;;;;;;;;;5.70;99.90;;;;;;7336659;19;110410;-86
2023/12/05 12:47:42;;;;;;;;;;;5.70;99.90;;;;;;7338954;19;108399;-85
2023/12/05 12:50:09;;;;;;;;;;;5.70;99.90;;;;;;7337779;19;109427;-85
2023/12/05 12:52:36;;;;;;;;;;;5.70;99.90;;;;;;7338396;19;110458;-86
2023/12/05 12:55:05;;;;;;;;;;;5.80;99.90;;;;;;7338013;19;108622;-85
2023/12/05 12:57:32;;;;;;;;;;;5.80;99.90;;;;;;7335769;19;109528;-85
2023/12/05 13:00:00;;;;;;;;;;;5.80;99.90;;;;;;7337112;19;110526;-86
2023/12/05 13:02:52;;;;;;;;;;;5.80;99.90;;;;;;7344863;19;109800;-85
2023/12/05 13:05:32;;;;;;;;;;;5.70;99.90;;;;;;7336083;19;110999;-86
2023/12/05 13:08:00;;;;;;;;;;;5.70;99.90;;;;;;7338292;19;108999;-85
2023/12/05 13:10:31;;;;;;;;;;;5.70;99.90;;;;;;7351493;19;108831;-86
2023/12/05 13:12:58;;;;;;;;;;;5.70;99.90;;;;;;7374123;19;111908;-86
2023/12/05 13:15:27;;;;;;;;;;;5.70;99.90;;;;;;7373766;19;107858;-85
2023/12/05 13:18:03;;;;;;;;;;;5.70;99.90;;;;;;7373930;19;108093;-85
2023/12/05 13:20:30;;;;;;;;;;;5.60;99.90;;;;;;7370870;19;109159;-85
2023/12/05 13:22:58;;;;;;;;;;;5.50;99.90;;;;;;7377687;19;108991;-86
2023/12/05 13:25:25;;;;;;;;;;;5.60;99.90;;;;;;7367592;19;109035;-86
2023/12/05 13:28:05;;;;;;;;;;;5.60;99.90;;;;;;7355691;19;108531;-86
2023/12/05 13:30:33;;;;;;;;;;;5.70;99.90;;;;;;7350561;19;109858;-86
2023/12/05 13:33:01;;;;;;;;;;;5.70;99.90;;;;;;7343426;19;108358;-86
2023/12/05 13:35:28;;;;;;;;;;;5.70;99.90;;;;;;7344159;19;108894;-88
2023/12/05 13:37:55;;;;;;;;;;;5.70;99.90;;;;;;7348313;19;109744;-86
2023/12/05 13:40:22;;;;;;;;;;;5.70;99.90;;;;;;7341942;19;109675;-86
2023/12/05 13:42:50;;;;;;;;;;;5.70;99.90;;;;;;7338496;19;108776;-87
2023/12/05 13:45:18;;;;;;;;;;;5.70;99.90;;;;;;7344808;19;109282;-86
2023/12/05 13:47:47;;;;;;;;;;;5.70;99.90;;;;;;7336856;19;108811;-86
2023/12/05 13:50:14;;;;;;;;;;;5.60;99.90;;;;;;7335208;19;112344;-86
2023/12/05 13:52:43;;;;;;;;;;;5.70;99.90;;;;;;7332215;19;112703;-86
2023/12/05 13:57:57;;;;;;;;;;;5.70;99.90;;;;;;7335046;19;111784;-75
2023/12/05 14:00:25;;;;;;;;;;;5.70;99.90;;;;;;7330999;19;109640;-75
2023/12/05 14:02:52;;;;;;;;;;;5.70;99.90;;;;;;7334878;19;108648;-75
2023/12/05 14:05:19;;;;;;;;;;;5.70;99.90;;;;;;7333990;19;109140;-75
2023/12/05 14:07:47;;;;;;;;;;;5.80;99.90;;;;;;7338226;19;112504;-75
2023/12/05 14:10:14;;;;;;;;;;;5.90;99.90;;;;;;7331338;19;110177;-75
2023/12/05 14:12:41;;;;;;;;;;;5.90;99.90;;;;;;7332254;19;109770;-75
2023/12/05 14:15:09;;;;;;;;;;;5.90;99.90;;;;;;7332464;19;108944;-74
2023/12/05 14:17:36;;;;;;;;;;;5.90;99.90;;;;;;7334809;19;108553;-76
2023/12/05 14:20:06;;;;;;;;;;;5.90;99.90;;;;;;7330470;19;111415;-77
2023/12/05 14:22:33;;;;;;;;;;;5.90;99.90;;;;;;7332226;19;108509;-76
2023/12/05 14:25:00;;;;;;;;;;;5.90;99.90;;;;;;7330673;19;109393;-76